sensor_id;sensor_type;location;lat;lon;timestamp;pressure;altitude;pressure_sealevel;temperature;humidity
28448;BME280;15675;52.870;-1.416;2024-02-14T00:02:07;100185.09;;;12.19;100.00
28448;BME280;15675;52.870;-1.416;2024-02-14T00:04:33;100185.19;;;12.09;100.00
28448;BME280;15675;52.870;-1.416;2024-02-14T00:06:59;100181.78;;;12.01;100.00
28448;BME280;15675;52.870;-1.416;2024-02-14T00:09:25;100190.50;;;12.00;100.00
28448;BME280;15675;52.870;-1.416;2024-02-14T00:11:51;100182.72;;;11.92;100.00
28448;BME280;15675;52.870;-1.416;2024-02-14T00:14:17;100188.84;;;11.87;100.00
28448;BME280;15675;52.870;-1.416;2024-02-14T00:16:44;100191.13;;;12.21;100.00
28448;BME280;15675;52.870;-1.416;2024-02-14T00:19:10;100186.13;;;12.02;100.00
28448;BME280;15675;52.870;-1.416;2024-02-14T00:21:35;100187.13;;;11.89;100.00
28448;BME280;15675;52.870;-1.416;2024-02-14T00:24:01;100180.84;;;12.12;100.00
28448;BME280;15675;52.870;-1.416;2024-02-14T00:26:27;100188.72;;;12.02;100.00
28448;BME280;15675;52.870;-1.416;2024-02-14T00:28:52;100184.44;;;11.98;100.00
28448;BME280;15675;52.870;-1.416;2024-02-14T00:31:18;100194.63;;;12.18;100.00
28448;BME280;15675;52.870;-1.416;2024-02-14T00:33:43;100196.50;;;12.04;100.00
28448;BME280;15675;52.870;-1.416;2024-02-14T00:36:11;100199.03;;;12.13;100.00
28448;BME280;15675;52.870;-1.416;2024-02-14T00:38:37;100203.28;;;12.20;100.00
28448;BME280;15675;52.870;-1.416;2024-02-14T00:41:02;100199.06;;;12.12;100.00
28448;BME280;15675;52.870;-1.416;2024-02-14T00:43:28;100215.25;;;12.35;100.00
28448;BME280;15675;52.870;-1.416;2024-02-14T00:45:54;100208.41;;;12.26;100.00
28448;BME280;15675;52.870;-1.416;2024-02-14T00:48:22;100205.75;;;12.31;100.00
28448;BME280;15675;52.870;-1.416;2024-02-14T00:50:48;100199.72;;;12.29;100.00
28448;BME280;15675;52.870;-1.416;2024-02-14T00:53:13;100196.91;;;12.48;100.00
28448;BME280;15675;52.870;-1.416;2024-02-14T00:55:39;100199.53;;;12.45;100.00
28448;BME280;15675;52.870;-1.416;2024-02-14T00:58:05;100200.47;;;12.39;100.00
28448;BME280;15675;52.870;-1.416;2024-02-14T01:00:31;100204.94;;;12.28;100.00
28448;BME280;15675;52.870;-1.416;2024-02-14T01:02:57;100211.03;;;12.25;100.00
28448;BME280;15675;52.870;-1.416;2024-02-14T01:05:24;100208.34;;;12.34;100.00
28448;BME280;15675;52.870;-1.416;2024-02-14T01:07:50;100205.84;;;12.23;100.00
28448;BME280;15675;52.870;-1.416;2024-02-14T01:10:15;100209.22;;;12.33;100.00
28448;BME280;15675;52.870;-1.416;2024-02-14T01:12:41;100209.19;;;12.35;100.00
28448;BME280;15675;52.870;-1.416;2024-02-14T01:15:07;100214.19;;;12.53;100.00
28448;BME280;15675;52.870;-1.416;2024-02-14T01:17:32;100214.28;;;12.42;100.00
28448;BME280;15675;52.870;-1.416;2024-02-14T01:20:01;100215.28;;;12.32;100.00
28448;BME280;15675;52.870;-1.416;2024-02-14T01:22:28;100216.72;;;12.58;100.00
28448;BME280;15675;52.870;-1.416;2024-02-14T01:24:53;100221.13;;;12.54;100.00
28448;BME280;15675;52.870;-1.416;2024-02-14T01:27:19;100216.50;;;12.75;100.00
28448;BME280;15675;52.870;-1.416;2024-02-14T01:29:48;100217.16;;;12.91;100.00
28448;BME280;15675;52.870;-1.416;2024-02-14T01:32:14;100204.63;;;12.54;100.00
28448;BME280;15675;52.870;-1.416;2024-02-14T01:34:39;100210.00;;;12.38;100.00
28448;BME280;15675;52.870;-1.416;2024-02-14T01:37:06;100212.78;;;12.26;100.00
28448;BME280;15675;52.870;-1.416;2024-02-14T01:39:32;100215.25;;;12.35;100.00
28448;BME280;15675;52.870;-1.416;2024-02-14T01:41:57;100213.56;;;12.31;100.00
28448;BME280;15675;52.870;-1.416;2024-02-14T01:44:23;100208.13;;;12.53;100.00
28448;BME280;15675;52.870;-1.416;2024-02-14T01:46:48;100211.59;;;12.52;100.00
28448;BME280;15675;52.870;-1.416;2024-02-14T01:49:15;100216.63;;;12.67;100.00
28448;BME280;15675;52.870;-1.416;2024-02-14T01:51:42;100217.19;;;12.89;100.00
28448;BME280;15675;52.870;-1.416;2024-02-14T01:54:11;100208.75;;;12.70;100.00
28448;BME280;15675;52.870;-1.416;2024-02-14T01:56:38;100206.50;;;12.42;100.00
28448;BME280;15675;52.870;-1.416;2024-02-14T01:59:05;100215.22;;;12.38;100.00
28448;BME280;15675;52.870;-1.416;2024-02-14T02:01:34;100211.06;;;12.22;100.00
28448;BME280;15675;52.870;-1.416;2024-02-14T02:03:59;100221.16;;;12.48;100.00
28448;BME280;15675;52.870;-1.416;2024-02-14T02:06:25;100210.94;;;12.34;100.00
28448;BME280;15675;52.870;-1.416;2024-02-14T02:08:53;100209.75;;;12.62;100.00
28448;BME280;15675;52.870;-1.416;2024-02-14T02:11:18;100212.38;;;12.60;100.00
28448;BME280;15675;52.870;-1.416;2024-02-14T02:13:44;100206.81;;;12.15;100.00
28448;BME280;15675;52.870;-1.416;2024-02-14T02:16:09;100208.22;;;12.43;100.00
28448;BME280;15675;52.870;-1.416;2024-02-14T02:18:35;100205.78;;;12.30;100.00
28448;BME280;15675;52.870;-1.416;2024-02-14T02:21:01;100201.31;;;12.39;100.00
28448;BME280;15675;52.870;-1.416;2024-02-14T02:23:29;100202.44;;;12.17;100.00
28448;BME280;15675;52.870;-1.416;2024-02-14T02:25:56;100211.88;;;12.25;100.00
28448;BME280;15675;52.870;-1.416;2024-02-14T02:28:21;100205.06;;;12.15;100.00
28448;BME280;15675;52.870;-1.416;2024-02-14T02:30:47;100207.69;;;12.14;100.00
28448;BME280;15675;52.870;-1.416;2024-02-14T02:33:13;100206.75;;;12.21;100.00
28448;BME280;15675;52.870;-1.416;2024-02-14T02:35:41;100198.69;;;12.42;100.00
28448;BME280;15675;52.870;-1.416;2024-02-14T02:38:07;100210.22;;;12.23;100.00
28448;BME280;15675;52.870;-1.416;2024-02-14T02:40:33;100209.16;;;12.38;100.00
28448;BME280;15675;52.870;-1.416;2024-02-14T02:42:58;100214.47;;;12.30;100.00
28448;BME280;15675;52.870;-1.416;2024-02-14T02:45:25;100217.91;;;12.31;100.00
28448;BME280;15675;52.870;-1.416;2024-02-14T02:47:51;100224.75;;;12.39;100.00
28448;BME280;15675;52.870;-1.416;2024-02-14T02:50:17;100222.09;;;12.42;100.00
28448;BME280;15675;52.870;-1.416;2024-02-14T02:52:43;100224.63;;;12.52;100.00
28448;BME280;15675;52.870;-1.416;2024-02-14T02:55:08;100219.19;;;12.69;100.00
28448;BME280;15675;52.870;-1.416;2024-02-14T02:57:34;100212.56;;;12.45;100.00
28448;BME280;15675;52.870;-1.416;2024-02-14T03:00:03;100206.41;;;12.52;100.00
28448;BME280;15675;52.870;-1.416;2024-02-14T03:02:33;100203.66;;;12.64;100.00
28448;BME280;15675;52.870;-1.416;2024-02-14T03:04:59;100201.03;;;12.63;100.00
28448;BME280;15675;52.870;-1.416;2024-02-14T03:07:25;100198.69;;;12.42;100.00
28448;BME280;15675;52.870;-1.416;2024-02-14T03:09:51;100196.06;;;12.44;100.00
28448;BME280;15675;52.870;-1.416;2024-02-14T03:12:17;100198.16;;;12.16;100.00
28448;BME280;15675;52.870;-1.416;2024-02-14T03:14:44;100203.75;;;12.53;100.00
28448;BME280;15675;52.870;-1.416;2024-02-14T03:17:09;100195.53;;;12.16;100.00
28448;BME280;15675;52.870;-1.416;2024-02-14T03:19:35;100196.28;;;12.27;100.00
28448;BME280;15675;52.870;-1.416;2024-02-14T03:22:04;100197.94;;;12.31;100.00
28448;BME280;15675;52.870;-1.416;2024-02-14T03:24:34;100195.78;;;12.67;100.00
28448;BME280;15675;52.870;-1.416;2024-02-14T03:27:03;100198.53;;;12.55;100.00
28448;BME280;15675;52.870;-1.416;2024-02-14T03:29:30;100194.94;;;12.65;100.00
28448;BME280;15675;52.870;-1.416;2024-02-14T03:31:55;100194.28;;;12.48;100.00
28448;BME280;15675;52.870;-1.416;2024-02-14T03:34:24;100194.34;;;12.43;100.00
28448;BME280;15675;52.870;-1.416;2024-02-14T03:36:50;100197.75;;;12.48;100.00
28448;BME280;15675;52.870;-1.416;2024-02-14T03:39:16;100197.13;;;12.28;100.00
28448;BME280;15675;52.870;-1.416;2024-02-14T03:41:42;100196.72;;;12.63;100.00
28448;BME280;15675;52.870;-1.416;2024-02-14T03:44:08;100191.78;;;12.41;100.00
28448;BME280;15675;52.870;-1.416;2024-02-14T03:46:34;100190.09;;;12.36;100.00
28448;BME280;15675;52.870;-1.416;2024-02-14T03:49:03;100193.44;;;12.47;100.00
28448;BME280;15675;52.870;-1.416;2024-02-14T03:51:28;100200.47;;;12.40;100.00
28448;BME280;15675;52.870;-1.416;2024-02-14T03:53:54;100192.84;;;12.23;100.00
28448;BME280;15675;52.870;-1.416;2024-02-14T03:56:19;100202.44;;;12.17;100.00
28448;BME280;15675;52.870;-1.416;2024-02-14T03:58:45;100204.00;;;12.33;100.00
28448;BME280;15675;52.870;-1.416;2024-02-14T04:01:12;100207.53;;;12.28;100.00
28448;BME280;15675;52.870;-1.416;2024-02-14T04:03:38;100202.25;;;12.35;100.00
28448;BME280;15675;52.870;-1.416;2024-02-14T04:06:03;100197.75;;;12.47;100.00
28448;BME280;15675;52.870;-1.416;2024-02-14T04:08:29;100207.06;;;12.66;100.00
28448;BME280;15675;52.870;-1.416;2024-02-14T04:10:55;100210.66;;;12.57;100.00
28448;BME280;15675;52.870;-1.416;2024-02-14T04:13:21;100206.25;;;12.63;100.00
28448;BME280;15675;52.870;-1.416;2024-02-14T04:15:47;100204.63;;;12.52;100.00
28448;BME280;15675;52.870;-1.416;2024-02-14T04:18:13;100202.03;;;12.52;100.00
28448;BME280;15675;52.870;-1.416;2024-02-14T04:20:40;100194.94;;;12.65;100.00
28448;BME280;15675;52.870;-1.416;2024-02-14T04:23:06;100185.41;;;12.64;100.00
28448;BME280;15675;52.870;-1.416;2024-02-14T04:25:32;100190.69;;;12.58;100.00
28448;BME280;15675;52.870;-1.416;2024-02-14T04:27:57;100207.03;;;12.69;100.00
28448;BME280;15675;52.870;-1.416;2024-02-14T04:30:25;100192.75;;;12.30;100.00
28448;BME280;15675;52.870;-1.416;2024-02-14T04:32:50;100197.63;;;12.59;100.00
28448;BME280;15675;52.870;-1.416;2024-02-14T04:35:17;100197.63;;;12.59;100.00
28448;BME280;15675;52.870;-1.416;2024-02-14T04:37:43;100197.75;;;12.47;100.00
28448;BME280;15675;52.870;-1.416;2024-02-14T04:40:12;100201.88;;;12.66;100.00
28448;BME280;15675;52.870;-1.416;2024-02-14T04:42:37;100193.13;;;12.72;100.00
28448;BME280;15675;52.870;-1.416;2024-02-14T04:45:04;100204.19;;;12.88;100.00
28448;BME280;15675;52.870;-1.416;2024-02-14T04:47:30;100195.78;;;12.67;100.00
28448;BME280;15675;52.870;-1.416;2024-02-14T04:49:55;100193.50;;;13.06;100.00
28448;BME280;15675;52.870;-1.416;2024-02-14T04:52:21;100187.88;;;12.73;100.00
28448;BME280;15675;52.870;-1.416;2024-02-14T04:54:46;100189.41;;;12.90;100.00
28448;BME280;15675;52.870;-1.416;2024-02-14T04:57:12;100182.66;;;12.75;100.00
28448;BME280;15675;52.870;-1.416;2024-02-14T04:59:37;100191.19;;;12.85;100.00
28448;BME280;15675;52.870;-1.416;2024-02-14T05:02:03;100185.31;;;12.72;100.00
28448;BME280;15675;52.870;-1.416;2024-02-14T05:04:28;100181.84;;;12.71;100.00
28448;BME280;15675;52.870;-1.416;2024-02-14T05:06:55;100186.13;;;12.75;100.00
28448;BME280;15675;52.870;-1.416;2024-02-14T05:09:20;100186.13;;;12.75;100.00
28448;BME280;15675;52.870;-1.416;2024-02-14T05:11:46;100188.81;;;12.69;100.00
28448;BME280;15675;52.870;-1.416;2024-02-14T05:14:11;100198.03;;;12.92;100.00
28448;BME280;15675;52.870;-1.416;2024-02-14T05:16:37;100194.91;;;12.67;100.00
28448;BME280;15675;52.870;-1.416;2024-02-14T05:19:02;100197.75;;;12.47;100.00
28448;BME280;15675;52.870;-1.416;2024-02-14T05:21:28;100196.03;;;12.49;100.00
28448;BME280;15675;52.870;-1.416;2024-02-14T05:23:53;100204.53;;;12.62;100.00
28448;BME280;15675;52.870;-1.416;2024-02-14T05:26:19;100195.25;;;12.40;100.00
28448;BME280;15675;52.870;-1.416;2024-02-14T05:28:44;100203.94;;;12.39;100.00
28448;BME280;15675;52.870;-1.416;2024-02-14T05:31:10;100210.94;;;12.36;100.00
28448;BME280;15675;52.870;-1.416;2024-02-14T05:33:36;100212.34;;;12.62;100.00
28448;BME280;15675;52.870;-1.416;2024-02-14T05:36:01;100210.94;;;12.34;100.00
28448;BME280;15675;52.870;-1.416;2024-02-14T05:38:27;100220.25;;;12.52;100.00
28448;BME280;15675;52.870;-1.416;2024-02-14T05:40:52;100218.56;;;12.51;100.00
28448;BME280;15675;52.870;-1.416;2024-02-14T05:43:20;100219.31;;;12.58;100.00
28448;BME280;15675;52.870;-1.416;2024-02-14T05:45:46;100221.78;;;12.70;100.00
28448;BME280;15675;52.870;-1.416;2024-02-14T05:48:12;100214.94;;;12.63;100.00
28448;BME280;15675;52.870;-1.416;2024-02-14T05:50:37;100222.41;;;12.88;100.00
28448;BME280;15675;52.870;-1.416;2024-02-14T05:53:03;100217.44;;;12.69;100.00
28448;BME280;15675;52.870;-1.416;2024-02-14T05:55:29;100208.81;;;12.66;100.00
28448;BME280;15675;52.870;-1.416;2024-02-14T05:57:55;100211.53;;;12.56;100.00
28448;BME280;15675;52.870;-1.416;2024-02-14T06:00:22;100218.31;;;12.68;100.00
28448;BME280;15675;52.870;-1.416;2024-02-14T06:02:48;100223.22;;;12.93;100.00
28448;BME280;15675;52.870;-1.416;2024-02-14T06:05:14;100219.25;;;12.66;100.00
28448;BME280;15675;52.870;-1.416;2024-02-14T06:07:43;100210.47;;;12.73;100.00
28448;BME280;15675;52.870;-1.416;2024-02-14T06:10:10;100222.66;;;12.69;100.00
28448;BME280;15675;52.870;-1.416;2024-02-14T06:12:36;100221.03;;;12.60;100.00
28448;BME280;15675;52.870;-1.416;2024-02-14T06:15:02;100223.50;;;12.73;100.00
28448;BME280;15675;52.870;-1.416;2024-02-14T06:17:28;100219.09;;;12.75;100.00
28448;BME280;15675;52.870;-1.416;2024-02-14T06:19:54;100215.63;;;12.76;100.00
28448;BME280;15675;52.870;-1.416;2024-02-14T06:22:19;100216.69;;;12.59;100.00
28448;BME280;15675;52.870;-1.416;2024-02-14T06:24:46;100226.28;;;12.57;100.00
28448;BME280;15675;52.870;-1.416;2024-02-14T06:27:14;100230.69;;;12.51;100.00
28448;BME280;15675;52.870;-1.416;2024-02-14T06:29:43;100233.28;;;12.51;100.00
28448;BME280;15675;52.870;-1.416;2024-02-14T06:32:09;100234.13;;;12.56;100.00
28448;BME280;15675;52.870;-1.416;2024-02-14T06:34:34;100219.13;;;12.73;100.00
28448;BME280;15675;52.870;-1.416;2024-02-14T06:37:00;100216.09;;;12.37;100.00
28448;BME280;15675;52.870;-1.416;2024-02-14T06:39:25;100232.25;;;12.66;100.00
28448;BME280;15675;52.870;-1.416;2024-02-14T06:41:51;100231.50;;;12.57;100.00
28448;BME280;15675;52.870;-1.416;2024-02-14T06:44:16;100240.88;;;12.69;100.00
28448;BME280;15675;52.870;-1.416;2024-02-14T06:46:44;100243.66;;;12.57;100.00
28448;BME280;15675;52.870;-1.416;2024-02-14T06:49:09;100238.44;;;12.57;100.00
28448;BME280;15675;52.870;-1.416;2024-02-14T06:51:35;100236.69;;;12.57;100.00
28448;BME280;15675;52.870;-1.416;2024-02-14T06:54:01;100237.47;;;12.66;100.00
28448;BME280;15675;52.870;-1.416;2024-02-14T06:56:26;100239.09;;;12.74;100.00
28448;BME280;15675;52.870;-1.416;2024-02-14T06:58:52;100244.00;;;12.96;100.00
28448;BME280;15675;52.870;-1.416;2024-02-14T07:01:27;100241.34;;;12.99;100.00
28448;BME280;15675;52.870;-1.416;2024-02-14T07:03:53;100244.84;;;12.97;100.00
28448;BME280;15675;52.870;-1.416;2024-02-14T07:06:19;100248.41;;;12.91;100.00
28448;BME280;15675;52.870;-1.416;2024-02-14T07:08:44;100242.13;;;13.06;100.00
28448;BME280;15675;52.870;-1.416;2024-02-14T07:11:10;100245.53;;;13.12;100.00
28448;BME280;15675;52.870;-1.416;2024-02-14T07:13:36;100246.03;;;12.74;100.00
28448;BME280;15675;52.870;-1.416;2024-02-14T07:16:02;100246.16;;;12.65;100.00
28448;BME280;15675;52.870;-1.416;2024-02-14T07:18:27;100251.09;;;12.85;100.00
28448;BME280;15675;52.870;-1.416;2024-02-14T07:20:53;100257.38;;;12.68;100.00
28448;BME280;15675;52.870;-1.416;2024-02-14T07:23:20;100269.28;;;12.89;100.00
28448;BME280;15675;52.870;-1.416;2024-02-14T07:25:45;100266.66;;;12.89;100.00
28448;BME280;15675;52.870;-1.416;2024-02-14T07:28:11;100270.25;;;12.81;100.00
28448;BME280;15675;52.870;-1.416;2024-02-14T07:30:37;100261.66;;;12.75;100.00
28448;BME280;15675;52.870;-1.416;2024-02-14T07:33:02;100265.91;;;12.80;100.00
28448;BME280;15675;52.870;-1.416;2024-02-14T07:35:28;100268.03;;;13.17;100.00
28448;BME280;15675;52.870;-1.416;2024-02-14T07:37:54;100264.81;;;12.99;100.00
28448;BME280;15675;52.870;-1.416;2024-02-14T07:40:20;100270.06;;;12.96;100.00
28448;BME280;15675;52.870;-1.416;2024-02-14T07:42:49;100271.91;;;12.88;100.00
28448;BME280;15675;52.870;-1.416;2024-02-14T07:45:15;100273.78;;;12.76;100.00
28448;BME280;15675;52.870;-1.416;2024-02-14T07:47:42;100273.47;;;13.03;100.00
28448;BME280;15675;52.870;-1.416;2024-02-14T07:50:08;100275.13;;;13.07;100.00
28448;BME280;15675;52.870;-1.416;2024-02-14T07:52:33;100273.47;;;13.01;100.00
28448;BME280;15675;52.870;-1.416;2024-02-14T07:54:59;100265.97;;;12.76;100.00
28448;BME280;15675;52.870;-1.416;2024-02-14T07:57:24;100267.28;;;13.10;100.00
28448;BME280;15675;52.870;-1.416;2024-02-14T07:59:51;100274.06;;;13.20;100.00
28448;BME280;15675;52.870;-1.416;2024-02-14T08:02:17;100275.81;;;13.21;100.00
28448;BME280;15675;52.870;-1.416;2024-02-14T08:04:43;100280.22;;;13.16;100.00
28448;BME280;15675;52.870;-1.416;2024-02-14T08:07:09;100263.97;;;12.97;100.00
28448;BME280;15675;52.870;-1.416;2024-02-14T08:09:35;100277.66;;;13.11;100.00
28448;BME280;15675;52.870;-1.416;2024-02-14T08:12:01;100270.00;;;13.01;100.00
28448;BME280;15675;52.870;-1.416;2024-02-14T08:14:27;100272.13;;;13.36;100.00
28448;BME280;15675;52.870;-1.416;2024-02-14T08:16:52;100267.63;;;13.48;100.00
28448;BME280;15675;52.870;-1.416;2024-02-14T08:19:18;100266.22;;;13.22;100.00
28448;BME280;15675;52.870;-1.416;2024-02-14T08:21:44;100258.56;;;13.12;100.00
28448;BME280;15675;52.870;-1.416;2024-02-14T08:24:10;100258.66;;;13.05;100.00
28448;BME280;15675;52.870;-1.416;2024-02-14T08:26:35;100259.31;;;13.19;100.00
28448;BME280;15675;52.870;-1.416;2024-02-14T08:29:01;100268.88;;;13.19;100.00
28448;BME280;15675;52.870;-1.416;2024-02-14T08:31:27;100268.69;;;13.36;100.00
28448;BME280;15675;52.870;-1.416;2024-02-14T08:33:53;100260.22;;;13.18;100.00
28448;BME280;15675;52.870;-1.416;2024-02-14T08:36:19;100273.94;;;13.29;100.00
28448;BME280;15675;52.870;-1.416;2024-02-14T08:38:44;100282.25;;;13.56;100.00
28448;BME280;15675;52.870;-1.416;2024-02-14T08:41:10;100275.63;;;13.32;100.00
28448;BME280;15675;52.870;-1.416;2024-02-14T08:43:36;100275.41;;;13.49;100.00
28448;BME280;15675;52.870;-1.416;2024-02-14T08:46:01;100277.91;;;13.57;100.00
28448;BME280;15675;52.870;-1.416;2024-02-14T08:48:28;100273.84;;;13.39;100.00
28448;BME280;15675;52.870;-1.416;2024-02-14T08:50:58;100274.72;;;13.38;100.00
28448;BME280;15675;52.870;-1.416;2024-02-14T08:53:24;100278.00;;;13.51;100.00
28448;BME280;15675;52.870;-1.416;2024-02-14T08:55:49;100286.91;;;13.34;100.00
28448;BME280;15675;52.870;-1.416;2024-02-14T08:58:15;100285.03;;;13.47;100.00
28448;BME280;15675;52.870;-1.416;2024-02-14T09:00:40;100285.72;;;13.58;100.00
28448;BME280;15675;52.870;-1.416;2024-02-14T09:03:06;100294.72;;;13.34;100.00
28448;BME280;15675;52.870;-1.416;2024-02-14T09:05:32;100293.06;;;13.30;100.00
28448;BME280;15675;52.870;-1.416;2024-02-14T09:07:57;100292.94;;;13.39;100.00
28448;BME280;15675;52.870;-1.416;2024-02-14T09:10:23;100295.78;;;13.19;100.00
28448;BME280;15675;52.870;-1.416;2024-02-14T09:12:49;100302.25;;;13.56;100.00
28448;BME280;15675;52.870;-1.416;2024-02-14T09:15:14;100314.38;;;13.60;100.00
28448;BME280;15675;52.870;-1.416;2024-02-14T09:17:40;100310.13;;;13.53;100.00
28448;BME280;15675;52.870;-1.416;2024-02-14T09:20:08;100311.00;;;13.53;100.00
28448;BME280;15675;52.870;-1.416;2024-02-14T09:22:35;100307.31;;;13.65;100.00
28448;BME280;15675;52.870;-1.416;2024-02-14T09:25:01;100303.88;;;13.64;100.00
28448;BME280;15675;52.870;-1.416;2024-02-14T09:27:30;100304.97;;;13.50;100.00
28448;BME280;15675;52.870;-1.416;2024-02-14T09:29:56;100296.94;;;13.62;100.00
28448;BME280;15675;52.870;-1.416;2024-02-14T09:32:21;100290.09;;;13.55;100.00
28448;BME280;15675;52.870;-1.416;2024-02-14T09:34:47;100295.97;;;13.69;100.00
28448;BME280;15675;52.870;-1.416;2024-02-14T09:37:12;100294.38;;;13.59;100.00
28448;BME280;15675;52.870;-1.416;2024-02-14T09:39:38;100291.09;;;13.48;100.00
28448;BME280;15675;52.870;-1.416;2024-02-14T09:42:09;100289.72;;;13.81;100.00
28448;BME280;15675;52.870;-1.416;2024-02-14T09:44:35;100292.47;;;13.70;100.00
28448;BME280;15675;52.870;-1.416;2024-02-14T09:47:03;100277.41;;;13.88;100.00
28448;BME280;15675;52.870;-1.416;2024-02-14T09:49:32;100275.84;;;13.77;100.00
28448;BME280;15675;52.870;-1.416;2024-02-14T09:51:58;100288.81;;;13.80;100.00
28448;BME280;15675;52.870;-1.416;2024-02-14T09:54:26;100291.19;;;13.96;100.00
28448;BME280;15675;52.870;-1.416;2024-02-14T09:56:53;100286.72;;;14.03;100.00
28448;BME280;15675;52.870;-1.416;2024-02-14T09:59:23;100295.34;;;14.06;100.00
28448;BME280;15675;52.870;-1.416;2024-02-14T10:01:49;100296.66;;;13.80;100.00
28448;BME280;15675;52.870;-1.416;2024-02-14T10:04:17;100292.25;;;13.84;100.00
28448;BME280;15675;52.870;-1.416;2024-02-14T10:06:47;100290.13;;;14.06;100.00
28448;BME280;15675;52.870;-1.416;2024-02-14T10:09:19;100287.84;;;13.88;100.00
28448;BME280;15675;52.870;-1.416;2024-02-14T10:11:45;100288.44;;;14.05;100.00
28448;BME280;15675;52.870;-1.416;2024-02-14T10:14:11;100281.81;;;13.86;100.00
28448;BME280;15675;52.870;-1.416;2024-02-14T10:16:38;100297.63;;;14.25;100.00
28448;BME280;15675;52.870;-1.416;2024-02-14T10:19:03;100286.72;;;14.03;100.00
28448;BME280;15675;52.870;-1.416;2024-02-14T10:21:30;100281.97;;;14.25;100.00
28448;BME280;15675;52.870;-1.416;2024-02-14T10:24:01;100294.25;;;14.20;100.00
28448;BME280;15675;52.870;-1.416;2024-02-14T10:26:30;100299.84;;;14.48;100.00
28448;BME280;15675;52.870;-1.416;2024-02-14T10:28:56;100286.03;;;14.41;100.00
28448;BME280;15675;52.870;-1.416;2024-02-14T10:31:25;100294.72;;;14.42;100.00
28448;BME280;15675;52.870;-1.416;2024-02-14T10:33:53;100290.38;;;14.41;100.00
28448;BME280;15675;52.870;-1.416;2024-02-14T10:36:20;100297.25;;;14.45;100.00
28448;BME280;15675;52.870;-1.416;2024-02-14T10:38:47;100305.72;;;14.58;100.00
28448;BME280;15675;52.870;-1.416;2024-02-14T10:41:15;100309.91;;;14.21;100.00
28448;BME280;15675;52.870;-1.416;2024-02-14T10:43:42;100297.47;;;14.34;100.00
28448;BME280;15675;52.870;-1.416;2024-02-14T10:46:19;100311.84;;;14.08;100.00
28448;BME280;15675;52.870;-1.416;2024-02-14T10:48:46;100307.97;;;14.31;100.00
28448;BME280;15675;52.870;-1.416;2024-02-14T10:51:14;100298.09;;;13.98;100.00
28448;BME280;15675;52.870;-1.416;2024-02-14T10:53:43;100308.97;;;14.25;100.00
28448;BME280;15675;52.870;-1.416;2024-02-14T10:56:13;100314.31;;;14.16;100.00
28448;BME280;15675;52.870;-1.416;2024-02-14T10:58:43;100315.78;;;14.32;100.00
28448;BME280;15675;52.870;-1.416;2024-02-14T11:01:11;100323.69;;;14.26;100.00
28448;BME280;15675;52.870;-1.416;2024-02-14T11:03:37;100320.06;;;14.37;100.00
28448;BME280;15675;52.870;-1.416;2024-02-14T11:06:03;100315.44;;;14.51;100.00
28448;BME280;15675;52.870;-1.416;2024-02-14T11:08:29;100320.13;;;14.32;100.00
28448;BME280;15675;52.870;-1.416;2024-02-14T11:10:59;100309.25;;;14.57;100.00
28448;BME280;15675;52.870;-1.416;2024-02-14T11:13:31;100315.25;;;14.62;100.00
28448;BME280;15675;52.870;-1.416;2024-02-14T11:16:00;100314.50;;;14.55;100.00
28448;BME280;15675;52.870;-1.416;2024-02-14T11:18:29;100321.69;;;14.41;100.00
28448;BME280;15675;52.870;-1.416;2024-02-14T11:20:55;100316.09;;;14.64;100.00
28448;BME280;15675;52.870;-1.416;2024-02-14T11:23:23;100320.31;;;14.71;100.00
28448;BME280;15675;52.870;-1.416;2024-02-14T11:25:48;100298.69;;;14.63;100.00
28448;BME280;15675;52.870;-1.416;2024-02-14T11:28:19;100320.50;;;14.59;100.00
28448;BME280;15675;52.870;-1.416;2024-02-14T11:30:45;100317.00;;;14.60;100.00
28448;BME280;15675;52.870;-1.416;2024-02-14T11:33:22;100313.75;;;14.48;100.00
28448;BME280;15675;52.870;-1.416;2024-02-14T11:35:50;100317.50;;;14.80;100.00
28448;BME280;15675;52.870;-1.416;2024-02-14T11:38:17;100326.34;;;14.73;100.00
28448;BME280;15675;52.870;-1.416;2024-02-14T11:40:43;100322.16;;;14.64;100.00
28448;BME280;15675;52.870;-1.416;2024-02-14T11:43:19;100327.72;;;14.93;100.00
28448;BME280;15675;52.870;-1.416;2024-02-14T11:45:46;100311.22;;;14.91;100.00
28448;BME280;15675;52.870;-1.416;2024-02-14T11:48:15;100302.78;;;14.76;100.00
28448;BME280;15675;52.870;-1.416;2024-02-14T11:50:43;100308.09;;;14.72;100.00
28448;BME280;15675;52.870;-1.416;2024-02-14T11:53:13;100304.22;;;14.91;100.00
28448;BME280;15675;52.870;-1.416;2024-02-14T11:55:41;100299.19;;;14.82;100.00
28448;BME280;15675;52.870;-1.416;2024-02-14T11:58:08;100300.84;;;14.86;100.00
28448;BME280;15675;52.870;-1.416;2024-02-14T12:00:43;100305.03;;;14.93;100.00
28448;BME280;15675;52.870;-1.416;2024-02-14T12:03:22;100310.97;;;15.42;100.00
28448;BME280;15675;52.870;-1.416;2024-02-14T12:05:50;100301.63;;;15.30;100.00
28448;BME280;15675;52.870;-1.416;2024-02-14T12:08:16;100303.69;;;15.16;100.00
28448;BME280;15675;52.870;-1.416;2024-02-14T12:10:44;100307.81;;;15.28;100.00
28448;BME280;15675;52.870;-1.416;2024-02-14T12:13:15;100303.84;;;15.10;100.00
28448;BME280;15675;52.870;-1.416;2024-02-14T12:15:45;100309.72;;;15.19;100.00
28448;BME280;15675;52.870;-1.416;2024-02-14T12:18:11;100302.03;;;15.12;100.00
28448;BME280;15675;52.870;-1.416;2024-02-14T12:20:37;100309.16;;;15.07;100.00
28448;BME280;15675;52.870;-1.416;2024-02-14T12:23:04;100297.66;;;15.14;100.00
28448;BME280;15675;52.870;-1.416;2024-02-14T12:25:30;100301.03;;;15.17;100.00
28448;BME280;15675;52.870;-1.416;2024-02-14T12:27:57;100292.94;;;15.30;100.00